createdAt,value
2023-06-07T00:01:17.582Z,17.26
2023-06-07T00:03:50.555Z,17.20
2023-06-07T00:06:21.680Z,17.10
2023-06-07T00:08:52.144Z,17.02
2023-06-07T00:11:24.064Z,16.95
2023-06-07T00:13:55.619Z,16.86
2023-06-07T00:16:25.904Z,16.76
2023-06-07T00:18:56.300Z,16.68
2023-06-07T00:21:29.695Z,16.71
2023-06-07T00:24:00.284Z,16.71
2023-06-07T00:26:30.959Z,16.73
2023-06-07T00:29:01.400Z,16.76
2023-06-07T00:31:31.691Z,16.64
2023-06-07T00:34:02.184Z,16.41
2023-06-07T00:36:35.527Z,16.30
2023-06-07T00:39:06.610Z,16.28
2023-06-07T00:41:37.760Z,16.27
2023-06-07T00:44:08.181Z,16.27
2023-06-07T00:46:38.601Z,16.25
2023-06-07T00:49:09.682Z,16.27
2023-06-07T00:51:40.668Z,16.24
2023-06-07T00:54:11.482Z,16.28
2023-06-07T00:56:41.638Z,16.30
2023-06-07T00:59:11.941Z,16.28
2023-06-07T01:01:46.696Z,16.25
2023-06-07T01:04:21.746Z,16.22
2023-06-07T01:06:51.923Z,16.32
2023-06-07T01:09:24.596Z,16.32
2023-06-07T01:12:00.980Z,16.27
2023-06-07T01:14:34.017Z,16.32
2023-06-07T01:17:27.330Z,16.32
2023-06-07T01:19:59.735Z,16.21
2023-06-07T01:22:32.755Z,16.16
2023-06-07T01:25:03.235Z,16.21
2023-06-07T01:27:39.392Z,16.17
2023-06-07T01:30:12.799Z,16.14
2023-06-07T01:32:45.408Z,16.10
2023-06-07T01:35:16.229Z,16.11
2023-06-07T01:37:50.016Z,16.07
2023-06-07T01:40:20.759Z,16.10
2023-06-07T01:42:52.465Z,16.10
2023-06-07T01:45:24.256Z,16.11
2023-06-07T01:47:54.987Z,15.99
2023-06-07T01:50:26.326Z,16.03
2023-06-07T01:52:56.762Z,16.04
2023-06-07T01:55:27.883Z,16.01
2023-06-07T01:58:25.355Z,16.06
2023-06-07T02:01:12.332Z,15.96
2023-06-07T02:03:47.959Z,15.91
2023-06-07T02:06:27.334Z,15.90
2023-06-07T02:09:00.321Z,15.82
2023-06-07T02:11:32.892Z,15.77
2023-06-07T02:14:05.394Z,15.74
2023-06-07T02:16:39.587Z,15.74
2023-06-07T02:19:13.676Z,15.67
2023-06-07T02:21:52.866Z,15.74
2023-06-07T02:24:23.063Z,15.65
2023-06-07T02:26:56.231Z,15.60
2023-06-07T02:29:26.942Z,15.52
2023-06-07T02:32:00.295Z,15.42
2023-06-07T02:34:34.842Z,15.43
2023-06-07T02:37:05.043Z,15.34
2023-06-07T02:39:35.433Z,15.36
2023-06-07T02:42:05.756Z,15.32
2023-06-07T02:44:36.003Z,15.31
2023-06-07T02:47:06.629Z,15.27
2023-06-07T02:49:37.394Z,15.24
2023-06-07T02:52:27.726Z,15.18
2023-06-07T02:54:57.964Z,15.21
2023-06-07T02:57:28.448Z,15.24
2023-06-07T02:59:58.664Z,15.35
2023-06-07T03:02:40.419Z,15.28
2023-06-07T03:05:11.574Z,15.24
2023-06-07T03:07:42.852Z,15.14
2023-06-07T03:10:14.909Z,15.14
2023-06-07T03:12:45.265Z,15.19
2023-06-07T03:15:15.628Z,15.24
2023-06-07T03:17:48.226Z,15.31
2023-06-07T03:20:20.423Z,15.29
2023-06-07T03:22:51.533Z,15.21
2023-06-07T03:25:24.113Z,15.15
2023-06-07T03:27:54.875Z,15.18
2023-06-07T03:30:35.458Z,15.25
2023-06-07T03:33:05.767Z,15.28
2023-06-07T03:35:38.152Z,15.21
2023-06-07T03:38:08.186Z,15.19
2023-06-07T03:40:38.253Z,15.18
2023-06-07T03:43:08.449Z,15.18
2023-06-07T03:45:38.909Z,15.17
2023-06-07T03:48:14.693Z,15.21
2023-06-07T03:50:44.902Z,15.12
2023-06-07T03:53:18.262Z,15.11
2023-06-07T03:55:51.362Z,15.08
2023-06-07T03:58:23.953Z,15.07
2023-06-07T04:00:54.813Z,15.05
2023-06-07T04:03:26.808Z,15.08
2023-06-07T04:06:03.026Z,15.07
2023-06-07T04:08:33.215Z,15.09
2023-06-07T04:11:03.400Z,15.08
2023-06-07T04:13:33.518Z,15.08
2023-06-07T04:16:03.998Z,15.01
2023-06-07T04:18:34.762Z,15.05
2023-06-07T04:21:05.223Z,15.05
2023-06-07T04:23:36.699Z,15.07
2023-06-07T04:26:08.705Z,15.07
2023-06-07T04:28:42.996Z,15.02
2023-06-07T04:31:15.471Z,14.95
2023-06-07T04:33:48.124Z,14.88
2023-06-07T04:36:21.279Z,14.94
2023-06-07T04:41:33.087Z,14.85
2023-06-07T04:44:07.694Z,14.85
2023-06-07T04:46:41.975Z,14.85
2023-06-07T04:49:19.901Z,14.87
2023-06-07T04:51:51.162Z,14.85
2023-06-07T04:54:22.776Z,14.81
2023-06-07T04:56:59.305Z,14.77
2023-06-07T04:59:36.960Z,14.76
2023-06-07T05:02:13.271Z,14.73
2023-06-07T05:04:45.254Z,14.71
2023-06-07T05:07:18.028Z,14.71
2023-06-07T05:09:53.072Z,14.74
2023-06-07T05:12:25.592Z,14.77
2023-06-07T05:14:55.974Z,14.80
2023-06-07T05:17:26.348Z,14.80
2023-06-07T05:19:57.939Z,14.84
2023-06-07T05:22:28.312Z,14.85
2023-06-07T05:24:58.498Z,14.85
2023-06-07T05:27:28.810Z,14.91
2023-06-07T05:29:58.972Z,14.95
2023-06-07T05:32:30.046Z,14.91
2023-06-07T05:35:00.331Z,14.91
2023-06-07T05:37:32.273Z,14.91
2023-06-07T05:40:03.614Z,14.94
2023-06-07T05:42:40.620Z,14.94
2023-06-07T05:45:12.214Z,14.99
2023-06-07T05:47:43.290Z,15.04
2023-06-07T05:50:15.140Z,15.01
2023-06-07T05:52:46.369Z,14.99
2023-06-07T05:55:17.217Z,14.92
2023-06-07T05:57:47.385Z,14.94
2023-06-07T06:00:19.055Z,14.94
2023-06-07T06:02:49.627Z,14.92
2023-06-07T06:05:20.757Z,14.91
2023-06-07T06:07:51.337Z,14.88
2023-06-07T06:10:21.583Z,14.83
2023-06-07T06:12:51.970Z,14.76
2023-06-07T06:15:22.135Z,14.80
2023-06-07T06:17:56.504Z,14.78
2023-06-07T06:20:26.677Z,14.77
2023-06-07T06:22:56.843Z,14.77
2023-06-07T06:25:28.077Z,14.68
2023-06-07T06:27:58.232Z,14.68
2023-06-07T06:30:29.552Z,14.64
2023-06-07T06:32:59.994Z,14.61
2023-06-07T06:35:30.773Z,14.54
2023-06-07T06:38:01.316Z,14.46
2023-06-07T06:40:31.469Z,14.51
2023-06-07T06:43:02.514Z,14.48
2023-06-07T06:45:47.577Z,14.59
2023-06-07T06:48:17.905Z,14.54
2023-06-07T06:50:50.260Z,14.50
2023-06-07T06:53:20.770Z,14.43
2023-06-07T06:55:51.061Z,14.40
2023-06-07T06:58:21.627Z,14.33
2023-06-07T07:00:51.420Z,14.34
2023-06-07T07:03:21.291Z,14.37
2023-06-07T07:05:51.650Z,14.41
2023-06-07T07:08:21.723Z,14.37
2023-06-07T07:10:53.506Z,14.43
2023-06-07T07:13:23.670Z,14.44
2023-06-07T07:15:53.801Z,14.43
2023-06-07T07:18:23.810Z,14.43
2023-06-07T07:20:54.641Z,14.43
2023-06-07T07:23:24.642Z,14.38
2023-06-07T07:25:54.537Z,14.34
2023-06-07T07:28:24.446Z,14.20
2023-06-07T07:30:54.690Z,14.20
2023-06-07T07:33:25.194Z,14.20
2023-06-07T07:35:55.791Z,14.26
2023-06-07T07:38:25.865Z,14.37
2023-06-07T07:40:55.975Z,14.37
2023-06-07T07:43:26.162Z,14.27
2023-06-07T07:45:56.461Z,14.17
2023-06-07T07:48:26.760Z,14.17
2023-06-07T07:50:57.591Z,14.17
2023-06-07T07:53:28.200Z,14.12
2023-06-07T07:55:58.457Z,14.16
2023-06-07T07:58:28.525Z,14.19
2023-06-07T08:00:58.667Z,14.26
2023-06-07T08:03:28.974Z,14.13
2023-06-07T08:05:59.742Z,14.08
2023-06-07T08:08:30.253Z,14.19
2023-06-07T08:11:00.876Z,14.29
2023-06-07T08:13:31.044Z,14.23
2023-06-07T08:16:01.084Z,14.08
2023-06-07T08:18:31.265Z,14.12
2023-06-07T08:21:01.360Z,14.20
2023-06-07T08:23:31.683Z,14.19
2023-06-07T08:26:04.324Z,14.08
2023-06-07T08:28:34.413Z,14.08
2023-06-07T08:31:06.256Z,14.16
2023-06-07T08:33:36.639Z,14.25
2023-06-07T08:36:07.302Z,14.27
2023-06-07T08:38:38.904Z,14.29
2023-06-07T08:41:09.064Z,14.25
2023-06-07T08:43:40.495Z,14.13
2023-06-07T08:46:11.078Z,14.15
2023-06-07T08:48:42.167Z,14.19
2023-06-07T08:51:13.137Z,14.25
2023-06-07T08:53:58.577Z,14.25
2023-06-07T08:56:31.763Z,14.10
2023-06-07T08:59:04.568Z,14.15
2023-06-07T09:01:39.711Z,14.20
2023-06-07T09:04:12.609Z,14.20
2023-06-07T09:06:42.864Z,14.04
2023-06-07T09:09:13.478Z,14.02
2023-06-07T09:11:43.413Z,14.06
2023-06-07T09:14:15.020Z,14.09
2023-06-07T09:16:55.904Z,13.99
2023-06-07T09:19:36.053Z,13.86
2023-06-07T09:22:07.787Z,13.86
2023-06-07T09:24:39.620Z,13.98
2023-06-07T09:27:13.199Z,14.02
2023-06-07T09:29:44.839Z,13.99
2023-06-07T09:32:28.241Z,14.01
2023-06-07T09:35:17.633Z,13.96
2023-06-07T09:37:48.479Z,13.95
2023-06-07T09:40:19.089Z,13.92
2023-06-07T09:42:57.917Z,13.88
2023-06-07T09:45:29.263Z,13.85
2023-06-07T09:48:10.152Z,13.86
2023-06-07T09:50:40.383Z,13.85
2023-06-07T09:53:11.531Z,13.89
2023-06-07T09:55:42.005Z,13.86
2023-06-07T09:58:22.707Z,13.89
2023-06-07T10:00:56.230Z,13.90
2023-06-07T10:03:29.582Z,13.90
2023-06-07T10:06:00.289Z,13.90
2023-06-07T10:08:30.574Z,13.98
2023-06-07T10:11:01.928Z,13.98
2023-06-07T10:13:32.436Z,14.12
2023-06-07T10:16:02.912Z,14.15
2023-06-07T10:18:33.844Z,14.23
2023-06-07T10:21:17.817Z,14.19
2023-06-07T10:23:56.809Z,14.17
2023-06-07T10:26:57.613Z,14.17
2023-06-07T10:29:41.844Z,14.22
2023-06-07T10:32:18.222Z,14.22
2023-06-07T10:34:49.283Z,14.29
2023-06-07T10:37:20.024Z,14.33
2023-06-07T10:39:51.298Z,14.30
2023-06-07T10:42:22.099Z,14.36
2023-06-07T10:44:53.074Z,14.44
2023-06-07T10:47:32.810Z,14.43
2023-06-07T10:50:03.093Z,14.50
2023-06-07T10:52:33.320Z,14.59
2023-06-07T10:55:23.258Z,14.59
2023-06-07T10:57:54.548Z,14.63
2023-06-07T11:00:32.721Z,14.67
2023-06-07T11:03:13.287Z,14.74
2023-06-07T11:05:58.453Z,14.78
2023-06-07T11:08:38.856Z,14.80
2023-06-07T11:11:43.754Z,14.84
2023-06-07T11:14:15.333Z,14.81
2023-06-07T11:16:45.598Z,14.83
2023-06-07T11:19:20.921Z,14.92
2023-06-07T11:22:02.661Z,14.94
2023-06-07T11:24:34.731Z,14.98
2023-06-07T11:27:05.152Z,15.04
2023-06-07T11:29:38.765Z,15.05
2023-06-07T11:32:10.043Z,15.07
2023-06-07T11:34:40.278Z,15.08
2023-06-07T11:37:18.774Z,15.12
2023-06-07T11:39:49.671Z,15.15
2023-06-07T11:42:20.079Z,15.21
2023-06-07T11:44:51.074Z,15.25
2023-06-07T11:47:22.648Z,15.31
2023-06-07T11:49:52.883Z,15.36
2023-06-07T11:52:24.744Z,15.48
2023-06-07T11:54:54.896Z,15.55
2023-06-07T11:57:25.072Z,15.62
2023-06-07T11:59:56.076Z,15.77
2023-06-07T12:02:26.972Z,15.97
2023-06-07T12:04:57.366Z,16.16
2023-06-07T12:07:35.115Z,16.30
2023-06-07T12:10:10.317Z,16.38
2023-06-07T12:12:41.782Z,16.52
2023-06-07T12:15:13.114Z,16.59
2023-06-07T12:17:44.628Z,16.65
2023-06-07T12:20:16.497Z,16.72
2023-06-07T12:22:46.694Z,16.75
2023-06-07T12:25:21.883Z,16.81
2023-06-07T12:27:52.556Z,16.96
2023-06-07T12:30:23.435Z,17.15
2023-06-07T12:33:01.412Z,17.39
2023-06-07T12:35:39.698Z,17.64
2023-06-07T12:38:10.350Z,17.90
2023-06-07T12:40:40.541Z,18.16
2023-06-07T12:43:10.800Z,18.35
2023-06-07T12:45:41.030Z,18.49
2023-06-07T12:48:11.839Z,18.51
2023-06-07T12:50:41.986Z,18.51
2023-06-07T12:53:12.153Z,18.62
2023-06-07T12:55:42.399Z,18.55
2023-06-07T12:58:12.471Z,18.48
2023-06-07T13:00:43.089Z,18.42
2023-06-07T13:03:14.481Z,18.45
2023-06-07T13:05:44.766Z,18.46
2023-06-07T13:08:15.895Z,18.57
2023-06-07T13:10:46.009Z,18.64
2023-06-07T13:13:19.180Z,18.82
2023-06-07T13:15:49.339Z,18.96
2023-06-07T13:18:20.298Z,19.20
2023-06-07T13:20:51.755Z,19.36
2023-06-07T13:23:21.802Z,19.57
2023-06-07T13:25:51.661Z,19.66
2023-06-07T13:28:21.498Z,19.92
2023-06-07T13:30:51.721Z,20.09
2023-06-07T13:33:21.391Z,20.00
2023-06-07T13:35:51.611Z,20.02
2023-06-07T13:38:22.230Z,19.99
2023-06-07T13:40:52.418Z,20.27
2023-06-07T13:43:31.048Z,20.50
2023-06-07T13:46:12.867Z,20.43
2023-06-07T13:48:43.654Z,20.41
2023-06-07T13:51:14.613Z,20.41
2023-06-07T13:53:48.503Z,20.40
2023-06-07T13:56:19.420Z,20.43
2023-06-07T13:58:49.542Z,20.48
2023-06-07T14:01:20.547Z,20.56
2023-06-07T14:03:52.214Z,20.65
2023-06-07T14:06:24.774Z,20.51
2023-06-07T14:08:54.985Z,20.32
2023-06-07T14:11:26.528Z,20.44
2023-06-07T14:13:56.651Z,20.65
2023-06-07T14:16:28.402Z,20.85
2023-06-07T14:18:59.790Z,21.15
2023-06-07T14:21:29.998Z,21.32
2023-06-07T14:24:00.107Z,21.47
2023-06-07T14:26:30.291Z,21.70
2023-06-07T14:29:00.549Z,22.11
2023-06-07T14:31:31.218Z,22.27
2023-06-07T14:34:01.591Z,22.40
2023-06-07T14:36:31.219Z,22.69
2023-06-07T14:39:02.360Z,22.86
2023-06-07T14:41:33.646Z,23.08
2023-06-07T14:44:03.795Z,23.20
2023-06-07T14:46:33.710Z,23.27
2023-06-07T14:49:04.044Z,23.46
2023-06-07T14:51:33.805Z,23.53
2023-06-07T14:54:06.030Z,23.60
2023-06-07T14:56:36.917Z,23.64
2023-06-07T14:59:06.507Z,23.84
2023-06-07T15:01:36.664Z,23.93
2023-06-07T15:04:07.035Z,24.02
2023-06-07T15:06:37.101Z,24.09
2023-06-07T15:09:11.359Z,24.15
2023-06-07T15:11:42.860Z,24.28
2023-06-07T15:14:12.534Z,24.35
2023-06-07T15:16:42.370Z,24.55
2023-06-07T15:19:12.450Z,24.63
2023-06-07T15:21:42.651Z,24.58
2023-06-07T15:24:14.667Z,24.66
2023-06-07T15:26:48.301Z,24.89
2023-06-07T15:29:17.955Z,25.02
2023-06-07T15:31:48.168Z,25.04
2023-06-07T15:34:18.452Z,25.10
2023-06-07T15:36:48.475Z,25.09
2023-06-07T15:39:18.512Z,25.26
2023-06-07T15:41:53.752Z,25.35
2023-06-07T15:44:23.935Z,25.44
2023-06-07T15:46:53.920Z,25.51
2023-06-07T15:49:23.501Z,25.52
2023-06-07T15:51:53.291Z,25.65
2023-06-07T15:54:42.779Z,25.77
2023-06-07T15:57:12.975Z,25.74
2023-06-07T15:59:43.058Z,25.84
2023-06-07T16:02:13.494Z,25.93
2023-06-07T16:04:43.967Z,26.06
2023-06-07T16:07:14.433Z,26.18
2023-06-07T16:09:44.566Z,26.18
2023-06-07T16:12:14.756Z,25.71
2023-06-07T16:14:45.664Z,25.91
2023-06-07T16:17:16.053Z,25.98
2023-06-07T16:19:46.571Z,25.62
2023-06-07T16:22:18.227Z,25.91
2023-06-07T16:24:48.291Z,26.09
2023-06-07T16:27:18.170Z,26.26
2023-06-07T16:29:47.778Z,26.28
2023-06-07T16:32:19.666Z,26.28
2023-06-07T16:34:49.909Z,26.10
2023-06-07T16:37:19.882Z,25.96
2023-06-07T16:39:50.001Z,26.10
2023-06-07T16:42:19.670Z,26.15
2023-06-07T16:44:49.450Z,26.26
2023-06-07T16:47:19.079Z,26.54
2023-06-07T16:49:49.129Z,26.84
2023-06-07T16:52:19.787Z,26.40
2023-06-07T16:54:49.834Z,25.99
2023-06-07T16:57:19.690Z,28.18
2023-06-07T16:59:49.599Z,28.20
2023-06-07T17:02:19.524Z,26.81
2023-06-07T17:04:49.938Z,26.51
2023-06-07T17:07:20.836Z,27.08
2023-06-07T17:09:50.796Z,25.72
2023-06-07T17:12:20.619Z,25.30
2023-06-07T17:14:50.587Z,25.11
2023-06-07T17:17:20.522Z,24.96
2023-06-07T17:19:50.108Z,24.97
2023-06-07T17:22:19.906Z,25.72
2023-06-07T17:24:49.494Z,25.40
2023-06-07T17:27:19.310Z,26.16
2023-06-07T17:29:48.880Z,26.03
2023-06-07T17:32:18.844Z,25.41
2023-06-07T17:34:48.682Z,25.30
2023-06-07T17:37:19.905Z,25.24
2023-06-07T17:39:50.107Z,29.57
2023-06-07T17:42:22.954Z,29.03
2023-06-07T17:44:54.524Z,27.69
2023-06-07T17:47:25.591Z,28.41
2023-06-07T17:49:55.723Z,26.32
2023-06-07T17:52:25.637Z,26.70
2023-06-07T17:54:55.537Z,25.78
2023-06-07T17:57:25.375Z,26.05
2023-06-07T17:59:56.094Z,26.61
2023-06-07T18:02:25.985Z,26.29
2023-06-07T18:04:56.040Z,27.00
2023-06-07T18:07:26.069Z,26.63
2023-06-07T18:09:56.647Z,26.15
2023-06-07T18:12:27.099Z,26.47
2023-06-07T18:14:57.207Z,26.57
2023-06-07T18:17:27.446Z,26.22
2023-06-07T18:19:57.619Z,26.25
2023-06-07T18:22:27.304Z,25.88
2023-06-07T18:24:57.120Z,25.35
2023-06-07T18:27:26.770Z,25.02
2023-06-07T18:29:56.604Z,24.84
2023-06-07T18:32:26.316Z,24.72
2023-06-07T18:34:56.133Z,24.56
2023-06-07T18:37:25.844Z,24.48
2023-06-07T18:39:55.647Z,24.42
2023-06-07T18:42:25.377Z,24.38
2023-06-07T18:44:55.287Z,24.33
2023-06-07T18:47:26.484Z,24.33
2023-06-07T18:49:56.809Z,24.29
2023-06-07T18:52:27.075Z,24.26
2023-06-07T18:54:57.285Z,24.30
2023-06-07T18:57:26.968Z,24.32
2023-06-07T18:59:57.027Z,24.36
2023-06-07T19:02:26.956Z,24.43
2023-06-07T19:04:57.072Z,24.42
2023-06-07T19:07:27.180Z,24.53
2023-06-07T19:09:57.197Z,24.53
2023-06-07T19:12:29.136Z,24.59
2023-06-07T19:14:59.621Z,24.65
2023-06-07T19:17:29.718Z,24.70
2023-06-07T19:20:01.734Z,24.69
2023-06-07T19:22:32.047Z,24.65
2023-06-07T19:25:02.257Z,24.63
2023-06-07T19:27:31.986Z,24.59
2023-06-07T19:30:02.126Z,24.49
2023-06-07T19:32:32.234Z,24.35
2023-06-07T19:35:05.836Z,24.28
2023-06-07T19:37:57.117Z,24.17
2023-06-07T19:40:29.696Z,24.05
2023-06-07T19:42:59.944Z,23.94
2023-06-07T19:45:30.124Z,23.91
2023-06-07T19:48:00.682Z,23.82
2023-06-07T19:50:32.092Z,23.71
2023-06-07T19:53:05.362Z,23.60
2023-06-07T19:55:35.957Z,23.54
2023-06-07T19:58:06.357Z,23.46
2023-06-07T20:00:36.955Z,23.43
2023-06-07T20:03:26.579Z,23.37
2023-06-07T20:05:56.806Z,23.37
2023-06-07T20:08:27.173Z,23.30
2023-06-07T20:10:57.286Z,23.26
2023-06-07T20:13:27.195Z,23.31
2023-06-07T20:15:57.316Z,23.30
2023-06-07T20:18:27.231Z,23.19
2023-06-07T20:20:57.296Z,23.15
2023-06-07T20:23:27.108Z,23.06
2023-06-07T20:25:58.912Z,22.99
2023-06-07T20:28:29.630Z,22.96
2023-06-07T20:31:00.855Z,22.92
2023-06-07T20:33:31.573Z,22.91
2023-06-07T20:36:03.346Z,22.86
2023-06-07T20:38:33.603Z,22.78
2023-06-07T20:41:03.258Z,22.71
2023-06-07T20:43:33.088Z,22.62
2023-06-07T20:46:02.979Z,22.55
2023-06-07T20:48:33.762Z,22.54
2023-06-07T20:51:03.960Z,22.48
2023-06-07T20:53:33.643Z,22.38
2023-06-07T20:56:03.460Z,22.27
2023-06-07T20:58:33.197Z,22.27
2023-06-07T21:01:03.290Z,22.22
2023-06-07T21:03:33.363Z,22.16
2023-06-07T21:06:03.451Z,22.08
2023-06-07T21:08:33.750Z,22.06
2023-06-07T21:11:05.042Z,22.03
2023-06-07T21:13:35.494Z,22.01
2023-06-07T21:16:05.225Z,22.03
2023-06-07T21:18:35.384Z,22.04
2023-06-07T21:21:05.048Z,21.85
2023-06-07T21:23:35.182Z,21.75
2023-06-07T21:26:05.073Z,21.66
2023-06-07T21:28:35.198Z,21.60
2023-06-07T21:31:04.941Z,21.67
2023-06-07T21:33:34.749Z,21.75
2023-06-07T21:36:04.800Z,21.73
2023-06-07T21:38:35.297Z,21.72
2023-06-07T21:41:05.465Z,21.72
2023-06-07T21:43:35.606Z,21.70
2023-06-07T21:46:05.671Z,21.66
2023-06-07T21:48:38.750Z,21.62
2023-06-07T21:51:09.011Z,21.56
2023-06-07T21:53:38.708Z,21.49
2023-06-07T21:56:08.843Z,21.50
2023-06-07T21:58:39.050Z,21.52
2023-06-07T22:01:09.473Z,21.50
2023-06-07T22:03:39.674Z,21.43
2023-06-07T22:06:09.739Z,21.41
2023-06-07T22:08:40.151Z,21.36
2023-06-07T22:11:10.672Z,21.34
2023-06-07T22:13:41.785Z,21.25
2023-06-07T22:16:12.019Z,21.24
2023-06-07T22:18:42.888Z,21.18
2023-06-07T22:21:15.213Z,21.16
2023-06-07T22:23:45.516Z,21.16
2023-06-07T22:26:17.559Z,21.14
2023-06-07T22:28:48.549Z,21.12
2023-06-07T22:31:19.706Z,21.09
2023-06-07T22:33:52.735Z,21.15
2023-06-07T22:36:23.470Z,21.06
2023-06-07T22:38:53.702Z,20.99
2023-06-07T22:41:24.244Z,20.85
2023-06-07T22:43:54.455Z,20.74
2023-06-07T22:46:25.907Z,20.64
2023-06-07T22:48:59.808Z,20.50
2023-06-07T22:51:35.327Z,20.36
2023-06-07T22:54:05.627Z,20.22
2023-06-07T22:56:35.959Z,20.12
2023-06-07T22:59:06.478Z,20.10
2023-06-07T23:01:37.126Z,20.05
2023-06-07T23:04:07.682Z,20.02
2023-06-07T23:06:39.737Z,19.92
2023-06-07T23:09:09.803Z,19.83
2023-06-07T23:11:40.414Z,19.81
2023-06-07T23:14:10.636Z,19.74
2023-06-07T23:16:41.372Z,19.68
2023-06-07T23:19:11.537Z,19.69
2023-06-07T23:21:47.262Z,19.68
2023-06-07T23:24:23.738Z,19.65
2023-06-07T23:26:55.967Z,19.64
2023-06-07T23:29:27.078Z,19.64
2023-06-07T23:31:58.074Z,19.65
2023-06-07T23:34:28.253Z,19.62
2023-06-07T23:36:58.460Z,19.59
2023-06-07T23:39:28.882Z,19.54
2023-06-07T23:42:02.692Z,19.51
2023-06-07T23:44:34.413Z,19.48
2023-06-07T23:47:04.667Z,19.44
2023-06-07T23:49:36.377Z,19.39
2023-06-07T23:52:07.227Z,19.31
2023-06-07T23:54:37.389Z,19.13
2023-06-07T23:57:09.361Z,19.15
2023-06-07T23:59:39.547Z,19.17
